createdAt,value
2019-03-11T00:00:23.966Z,4.00
2019-03-11T00:02:56.774Z,4.00
2019-03-11T00:05:28.029Z,4.10
2019-03-11T00:07:59.167Z,4.20
2019-03-11T00:10:30.283Z,4.20
2019-03-11T00:13:01.143Z,4.20
2019-03-11T00:15:32.286Z,4.10
2019-03-11T00:18:03.555Z,4.10
2019-03-11T00:20:35.422Z,4.10
2019-03-11T00:23:07.209Z,4.10
2019-03-11T00:25:38.363Z,4.10
2019-03-11T00:28:09.605Z,4.20
2019-03-11T00:30:40.910Z,4.20
2019-03-11T00:33:14.031Z,4.20
2019-03-11T00:35:45.616Z,4.10
2019-03-11T00:38:16.457Z,4.10
2019-03-11T00:40:48.024Z,4.10
2019-03-11T00:43:18.934Z,4.10
2019-03-11T00:45:49.741Z,4.10
2019-03-11T00:48:20.522Z,4.10
2019-03-11T00:50:51.682Z,4.10
2019-03-11T00:53:22.991Z,4.10
2019-03-11T00:55:53.814Z,4.10
2019-03-11T00:58:24.590Z,4.00
2019-03-11T01:00:55.679Z,4.00
2019-03-11T01:03:27.057Z,3.90
2019-03-11T01:05:58.222Z,4.00
2019-03-11T01:08:29.237Z,4.00
2019-03-11T01:11:00.027Z,4.00
2019-03-11T01:13:30.842Z,4.00
2019-03-11T01:16:01.709Z,4.00
2019-03-11T01:18:32.494Z,4.10
2019-03-11T01:21:03.687Z,4.10
2019-03-11T01:23:34.486Z,4.10
2019-03-11T01:26:05.236Z,4.10
2019-03-11T01:28:36.150Z,4.10
2019-03-11T01:31:07.277Z,4.00
2019-03-11T01:33:38.406Z,4.00
2019-03-11T01:36:09.406Z,4.00
2019-03-11T01:38:40.246Z,4.00
2019-03-11T01:41:11.134Z,4.00
2019-03-11T01:43:41.953Z,4.00
2019-03-11T01:46:13.176Z,4.00
2019-03-11T01:48:44.729Z,3.90
2019-03-11T01:51:15.574Z,3.90
2019-03-11T01:53:46.734Z,3.90
2019-03-11T01:56:17.594Z,4.00
2019-03-11T01:58:48.373Z,4.00
2019-03-11T03:02:00.893Z,4.60
2019-03-11T03:04:38.266Z,4.60
2019-03-11T03:07:08.947Z,4.60
2019-03-11T03:09:39.697Z,4.60
2019-03-11T03:12:10.708Z,4.50
2019-03-11T03:14:41.378Z,4.50
2019-03-11T03:17:12.555Z,4.50
2019-03-11T03:19:44.225Z,4.50
2019-03-11T03:22:15.028Z,4.60
2019-03-11T03:24:45.688Z,4.60
2019-03-11T03:27:16.456Z,4.60
2019-03-11T03:29:47.786Z,4.60
2019-03-11T03:32:19.128Z,4.60
2019-03-11T03:34:52.293Z,4.70
2019-03-11T03:37:23.533Z,4.70
2019-03-11T03:39:54.197Z,4.70
2019-03-11T03:42:25.312Z,4.70
2019-03-11T03:45:28.017Z,4.70
2019-03-11T03:47:59.754Z,4.70
2019-03-11T03:50:32.764Z,4.70
2019-03-11T03:53:05.314Z,4.80
2019-03-11T03:55:37.143Z,4.60
2019-03-11T03:58:08.426Z,4.20
2019-03-11T04:00:40.283Z,3.80
2019-03-11T04:03:11.030Z,3.60
2019-03-11T04:05:41.705Z,3.40
2019-03-11T04:08:12.414Z,3.30
2019-03-11T04:10:43.110Z,3.10
2019-03-11T04:13:15.103Z,3.00
2019-03-11T04:15:46.655Z,2.90
2019-03-11T04:18:19.458Z,2.80
2019-03-11T04:20:51.251Z,2.70
2019-03-11T04:23:22.061Z,2.70
2019-03-11T04:25:52.746Z,2.60
2019-03-11T04:28:24.249Z,2.50
2019-03-11T04:30:55.641Z,2.50
2019-03-11T04:33:26.285Z,2.40
2019-03-11T04:35:56.956Z,2.40
2019-03-11T04:38:27.624Z,2.40
2019-03-11T04:40:58.614Z,2.50
2019-03-11T04:43:29.279Z,2.50
2019-03-11T04:46:00.200Z,2.50
2019-03-11T04:48:31.627Z,2.50
2019-03-11T04:51:02.630Z,2.50
2019-03-11T04:53:33.276Z,2.50
2019-03-11T04:56:04.035Z,2.50
2019-03-11T04:58:34.685Z,2.50
2019-03-11T05:01:05.660Z,2.50
2019-03-11T05:03:36.328Z,2.40
2019-03-11T05:06:07.008Z,2.40
2019-03-11T05:08:38.236Z,2.40
2019-03-11T05:11:09.245Z,2.50
2019-03-11T05:13:40.219Z,2.50
2019-03-11T05:16:11.281Z,2.50
2019-03-11T05:18:41.933Z,2.40
2019-03-11T05:21:12.601Z,2.40
2019-03-11T05:23:43.814Z,2.40
2019-03-11T05:26:14.513Z,2.40
2019-03-11T05:28:45.175Z,2.40
2019-03-11T05:31:15.825Z,2.40
2019-03-11T05:33:47.750Z,2.30
2019-03-11T05:36:18.648Z,2.30
2019-03-11T05:38:49.329Z,2.20
2019-03-11T05:41:20.001Z,2.00
2019-03-11T05:43:50.673Z,2.00
2019-03-11T05:46:21.360Z,1.90
2019-03-11T05:48:52.078Z,1.90
2019-03-11T05:51:31.010Z,1.90
2019-03-11T05:53:55.095Z,1.80
2019-03-11T05:56:26.136Z,1.80
2019-03-11T05:58:57.652Z,1.80
2019-03-11T06:01:28.673Z,1.80
2019-03-11T06:04:01.088Z,1.70
2019-03-11T06:06:31.793Z,1.70
2019-03-11T06:09:05.857Z,1.70
2019-03-11T06:11:36.661Z,1.70
2019-03-11T06:14:07.343Z,1.80
2019-03-11T06:16:37.995Z,1.80
2019-03-11T06:19:08.670Z,1.90
2019-03-11T06:21:45.269Z,1.80
2019-03-11T06:24:15.949Z,1.80
2019-03-11T06:26:46.956Z,1.90
2019-03-11T06:29:17.685Z,1.90
2019-03-11T06:31:48.366Z,1.90
2019-03-11T06:34:19.012Z,1.90
2019-03-11T06:36:49.968Z,2.00
2019-03-11T06:39:20.923Z,2.00
2019-03-11T06:41:52.432Z,2.00
2019-03-11T06:44:23.130Z,2.00
2019-03-11T06:46:53.785Z,2.00
2019-03-11T06:49:24.810Z,2.00
2019-03-11T06:51:55.477Z,2.10
2019-03-11T06:54:26.153Z,2.10
2019-03-11T06:56:58.069Z,2.10
2019-03-11T06:59:28.754Z,2.10
2019-03-11T07:01:59.773Z,2.10
2019-03-11T07:04:30.820Z,2.20
2019-03-11T07:07:02.111Z,2.20
2019-03-11T07:09:32.777Z,2.20
2019-03-11T07:12:06.442Z,2.20
2019-03-11T07:14:37.100Z,2.20
2019-03-11T07:17:08.966Z,2.20
2019-03-11T07:19:39.632Z,2.20
2019-03-11T07:22:10.420Z,2.20
2019-03-11T07:24:41.361Z,2.20
2019-03-11T07:27:12.026Z,2.20
2019-03-11T07:29:43.032Z,2.20
2019-03-11T07:32:13.692Z,2.20
2019-03-11T07:34:44.612Z,2.20
2019-03-11T07:37:15.373Z,2.20
2019-03-11T07:39:46.137Z,2.20
2019-03-11T07:42:17.440Z,2.20
2019-03-11T07:44:48.126Z,2.10
2019-03-11T07:47:18.933Z,2.20
2019-03-11T07:49:49.692Z,2.10
2019-03-11T07:52:20.452Z,2.20
2019-03-11T07:54:51.113Z,2.20
2019-03-11T07:57:22.118Z,2.30
2019-03-11T07:59:52.866Z,2.40
2019-03-11T08:02:23.598Z,2.40
2019-03-11T08:04:54.438Z,2.50
2019-03-11T08:07:27.349Z,2.50
2019-03-11T08:09:57.489Z,2.60
2019-03-11T08:12:28.160Z,2.60
2019-03-11T08:14:59.812Z,2.60
2019-03-11T08:17:30.761Z,2.60
2019-03-11T08:20:02.411Z,2.60
2019-03-11T08:22:34.049Z,2.60
2019-03-11T08:25:05.037Z,2.60
2019-03-11T08:27:35.724Z,2.70
2019-03-11T08:30:07.405Z,2.80
2019-03-11T08:32:39.012Z,2.80
2019-03-11T08:35:10.433Z,2.80
2019-03-11T08:37:41.961Z,2.80
2019-03-11T08:40:14.125Z,2.90
2019-03-11T08:42:44.805Z,2.80
2019-03-11T08:45:15.781Z,2.90
2019-03-11T08:47:47.106Z,2.90
2019-03-11T08:50:18.164Z,3.00
2019-03-11T08:52:48.826Z,3.00
2019-03-11T08:55:21.437Z,3.10
2019-03-11T08:57:53.540Z,3.10
2019-03-11T09:00:24.497Z,3.20
2019-03-11T09:02:57.451Z,3.30
2019-03-11T09:05:28.112Z,3.30
2019-03-11T09:07:58.954Z,3.40
2019-03-11T09:10:30.755Z,3.50
2019-03-11T09:13:01.573Z,3.70
2019-03-11T09:15:32.689Z,3.90
2019-03-11T09:18:03.555Z,4.00
2019-03-11T09:20:34.477Z,4.00
2019-03-11T09:23:05.205Z,4.00
2019-03-11T09:25:36.828Z,3.90
2019-03-11T09:28:07.777Z,3.90
2019-03-11T09:30:38.702Z,3.90
2019-03-11T09:33:10.488Z,3.90
2019-03-11T09:35:41.253Z,3.90
2019-03-11T09:38:12.261Z,3.90
2019-03-11T09:40:42.946Z,3.90
2019-03-11T09:43:13.945Z,3.90
2019-03-11T09:45:44.596Z,3.90
2019-03-11T09:48:15.276Z,3.90
2019-03-11T09:50:45.920Z,3.90
2019-03-11T09:53:16.601Z,3.90
2019-03-11T09:55:47.624Z,3.90
2019-03-11T09:58:19.130Z,4.00
2019-03-11T10:00:49.806Z,4.00
2019-03-11T10:03:20.481Z,4.10
2019-03-11T10:05:51.435Z,4.10
2019-03-11T10:08:22.105Z,4.20
2019-03-11T10:10:53.122Z,4.30
2019-03-11T10:13:27.420Z,4.30
2019-03-11T10:15:57.466Z,4.40
2019-03-11T10:18:28.153Z,4.60
2019-03-11T10:20:59.856Z,4.70
2019-03-11T10:23:32.560Z,4.80
2019-03-11T10:26:04.498Z,4.80
2019-03-11T10:28:35.160Z,4.80
2019-03-11T10:31:06.196Z,4.80
2019-03-11T10:33:37.207Z,4.80
2019-03-11T10:36:09.037Z,4.80
2019-03-11T10:38:40.002Z,4.90
2019-03-11T10:41:10.653Z,4.90
2019-03-11T10:43:41.759Z,4.80
2019-03-11T10:46:12.423Z,4.80
2019-03-11T10:48:43.096Z,4.80
2019-03-11T10:51:13.770Z,4.70
2019-03-11T10:53:44.797Z,4.80
2019-03-11T10:56:15.468Z,4.90
2019-03-11T10:58:46.235Z,5.00
2019-03-11T11:01:17.007Z,5.10
2019-03-11T11:03:47.667Z,5.10
2019-03-11T11:06:18.677Z,5.10
2019-03-11T11:08:50.184Z,5.10
2019-03-11T11:11:20.869Z,5.10
2019-03-11T11:13:51.530Z,5.00
2019-03-11T11:16:22.985Z,5.00
2019-03-11T11:18:54.041Z,4.90
2019-03-11T11:21:25.033Z,4.90
2019-03-11T11:23:55.800Z,4.90
2019-03-11T11:26:26.473Z,4.90
2019-03-11T11:28:57.414Z,4.90
2019-03-11T11:31:28.429Z,4.90
2019-03-11T11:33:59.753Z,4.90
2019-03-11T11:36:30.441Z,4.80
2019-03-11T11:39:01.961Z,4.90
2019-03-11T11:41:34.509Z,4.90
2019-03-11T11:44:05.452Z,4.90
2019-03-11T11:46:36.445Z,4.90
2019-03-11T11:49:08.424Z,5.00
2019-03-11T11:51:39.437Z,5.00
2019-03-11T11:54:11.834Z,5.00
2019-03-11T11:56:42.854Z,5.00
2019-03-11T11:59:13.596Z,5.00
2019-03-11T12:01:45.121Z,5.00
2019-03-11T12:04:16.057Z,5.00
2019-03-11T12:06:47.096Z,5.00
2019-03-11T12:09:18.458Z,5.10
2019-03-11T12:11:49.617Z,5.10
2019-03-11T12:14:20.569Z,5.10
2019-03-11T12:16:51.213Z,5.10
2019-03-11T12:19:23.594Z,5.10
2019-03-11T12:21:54.259Z,5.10
2019-03-11T12:24:25.261Z,5.10
2019-03-11T12:26:56.212Z,5.20
2019-03-11T12:29:28.066Z,5.20
2019-03-11T12:31:59.461Z,5.20
2019-03-11T12:34:30.469Z,5.20
2019-03-11T12:37:02.849Z,5.30
2019-03-11T12:39:35.337Z,5.40
2019-03-11T12:42:06.173Z,5.50
2019-03-11T12:44:37.184Z,5.60
2019-03-11T12:47:08.125Z,5.60
2019-03-11T12:49:40.050Z,5.70
2019-03-11T12:52:10.790Z,5.60
2019-03-11T12:54:41.449Z,5.70
2019-03-11T12:57:12.393Z,5.70
2019-03-11T12:59:43.089Z,5.70
2019-03-11T13:02:13.820Z,5.70
2019-03-11T13:04:44.643Z,5.70
2019-03-11T13:07:15.570Z,5.80
2019-03-11T13:09:46.611Z,5.80
2019-03-11T13:12:18.397Z,5.80
2019-03-11T13:14:50.541Z,5.70
2019-03-11T13:17:21.600Z,5.70
2019-03-11T13:19:54.666Z,5.70
2019-03-11T13:22:25.642Z,5.70
2019-03-11T13:24:56.296Z,5.70
2019-03-11T13:27:28.432Z,5.70
2019-03-11T13:29:59.100Z,5.70
2019-03-11T13:32:29.782Z,5.70
2019-03-11T13:35:00.465Z,5.60
2019-03-11T13:37:31.185Z,5.60
2019-03-11T13:40:02.626Z,5.70
2019-03-11T13:42:33.789Z,5.60
2019-03-11T13:45:05.776Z,5.60
2019-03-11T13:47:37.909Z,5.60
2019-03-11T13:50:09.317Z,5.60
2019-03-11T13:52:40.114Z,5.70
2019-03-11T13:55:11.086Z,5.70
2019-03-11T13:57:42.356Z,5.70
2019-03-11T14:00:13.520Z,5.70
2019-03-11T14:02:44.181Z,5.70
2019-03-11T14:05:15.607Z,5.70
2019-03-11T14:07:47.709Z,5.80
2019-03-11T14:10:18.366Z,5.80
2019-03-11T14:12:49.328Z,5.90
2019-03-11T14:15:20.865Z,6.00
2019-03-11T14:17:51.891Z,6.00
2019-03-11T14:20:22.560Z,6.10
2019-03-11T14:22:53.573Z,6.20
2019-03-11T14:25:24.409Z,6.40
2019-03-11T14:27:55.730Z,6.40
2019-03-11T14:30:26.409Z,6.30
2019-03-11T14:32:57.052Z,6.10
2019-03-11T14:35:28.089Z,6.10
2019-03-11T14:37:58.745Z,6.10
2019-03-11T14:40:29.491Z,6.20
2019-03-11T14:43:01.009Z,6.20
2019-03-11T14:45:31.722Z,6.20
2019-03-11T14:48:02.405Z,6.20
2019-03-11T14:50:33.491Z,6.20
2019-03-11T14:53:04.581Z,6.10
2019-03-11T14:55:35.883Z,6.10
2019-03-11T14:58:07.245Z,6.10
2019-03-11T15:00:39.427Z,5.80
2019-03-11T15:03:10.240Z,5.50
2019-03-11T15:05:41.204Z,5.40
2019-03-11T15:08:12.806Z,5.30
2019-03-11T15:10:43.885Z,5.30
2019-03-11T15:13:14.941Z,5.50
2019-03-11T15:15:46.799Z,5.60
2019-03-11T15:18:18.063Z,5.70
2019-03-11T15:20:49.006Z,5.70
2019-03-11T15:23:21.082Z,5.70
2019-03-11T15:25:51.842Z,5.70
2019-03-11T15:28:22.529Z,5.80
2019-03-11T15:30:55.091Z,5.80
2019-03-11T15:33:26.635Z,5.90
2019-03-11T15:35:57.921Z,5.90
2019-03-11T15:38:28.589Z,5.90
2019-03-11T15:40:59.518Z,5.90
2019-03-11T15:43:30.956Z,5.90
2019-03-11T15:46:01.989Z,5.80
2019-03-11T15:48:33.541Z,5.80
2019-03-11T15:51:04.461Z,5.80
2019-03-11T15:53:35.116Z,5.70
2019-03-11T15:56:06.314Z,5.70
2019-03-11T15:58:37.245Z,5.70
2019-03-11T16:01:08.247Z,5.60
2019-03-11T16:03:40.114Z,5.50
2019-03-11T16:06:12.257Z,5.50
2019-03-11T16:08:43.973Z,5.60
2019-03-11T16:11:15.721Z,5.60
2019-03-11T16:13:46.509Z,5.60
2019-03-11T16:16:17.168Z,5.50
2019-03-11T16:18:48.788Z,5.50
2019-03-11T16:21:19.446Z,5.50
2019-03-11T16:23:52.723Z,5.50
2019-03-11T16:26:31.210Z,5.50
2019-03-11T16:29:01.898Z,5.50
2019-03-11T16:31:33.467Z,5.50
2019-03-11T16:34:04.277Z,5.50
2019-03-11T16:36:34.945Z,5.50
2019-03-11T16:39:07.992Z,5.50
2019-03-11T16:41:39.952Z,5.50
2019-03-11T16:44:10.967Z,5.50
2019-03-11T16:46:44.566Z,5.60
2019-03-11T16:49:16.598Z,5.60
2019-03-11T16:51:48.951Z,5.60
2019-03-11T16:54:20.139Z,5.60
2019-03-11T16:56:51.012Z,5.60
2019-03-11T16:59:25.507Z,5.60
2019-03-11T17:01:59.686Z,5.60
2019-03-11T17:04:34.592Z,5.60
2019-03-11T17:07:07.987Z,5.60
2019-03-11T17:09:40.280Z,5.60
2019-03-11T17:12:11.761Z,5.50
2019-03-11T17:14:42.449Z,5.50
2019-03-11T17:17:13.744Z,5.50
2019-03-11T17:19:44.406Z,5.50
2019-03-11T17:22:15.134Z,5.50
2019-03-11T17:24:45.831Z,5.50
2019-03-11T17:27:16.740Z,5.50
2019-03-11T17:29:48.122Z,5.50
2019-03-11T17:32:19.060Z,5.50
2019-03-11T17:34:49.816Z,5.50
2019-03-11T17:37:35.874Z,5.50
2019-03-11T17:40:08.451Z,5.50
2019-03-11T17:42:42.675Z,5.50
2019-03-11T17:45:14.546Z,5.50
2019-03-11T17:47:45.845Z,5.50
2019-03-11T17:50:18.153Z,5.40
2019-03-11T17:52:49.643Z,5.50
2019-03-11T17:55:21.101Z,5.50
2019-03-11T17:57:51.968Z,5.50
2019-03-11T18:00:26.120Z,5.50
2019-03-11T18:02:58.849Z,5.50
2019-03-11T18:05:29.943Z,5.50
2019-03-11T18:08:01.207Z,5.50
2019-03-11T18:10:32.265Z,5.50
2019-03-11T18:13:04.486Z,5.50
2019-03-11T18:15:35.362Z,5.50
2019-03-11T18:18:06.323Z,5.50
2019-03-11T18:20:39.217Z,5.50
2019-03-11T18:23:14.242Z,5.50
2019-03-11T18:25:45.993Z,5.60
2019-03-11T18:28:17.025Z,5.50
2019-03-11T18:30:48.421Z,5.50
2019-03-11T18:33:20.590Z,5.60
2019-03-11T18:35:52.320Z,5.60
2019-03-11T18:38:24.471Z,5.60
2019-03-11T18:40:56.746Z,5.60
2019-03-11T18:43:29.016Z,5.60
2019-03-11T18:46:01.378Z,5.60
2019-03-11T18:48:33.194Z,5.60
2019-03-11T18:51:10.979Z,5.60
2019-03-11T18:53:40.738Z,5.60
2019-03-11T18:56:11.582Z,5.60
2019-03-11T18:58:42.821Z,5.60
2019-03-11T19:01:15.498Z,5.70
2019-03-11T19:03:46.544Z,5.70
2019-03-11T19:06:18.017Z,5.70
2019-03-11T19:08:49.129Z,5.70
2019-03-11T19:11:22.721Z,5.80
2019-03-11T19:13:58.886Z,5.70
2019-03-11T19:16:35.765Z,5.70
2019-03-11T19:19:07.810Z,5.70
2019-03-11T19:21:38.632Z,5.70
2019-03-11T19:24:09.395Z,5.70
2019-03-11T19:26:40.186Z,5.70
2019-03-11T19:29:11.285Z,5.70
2019-03-11T19:31:43.209Z,5.60
2019-03-11T19:34:13.977Z,5.60
2019-03-11T19:36:44.680Z,5.60
2019-03-11T19:39:18.208Z,5.60
2019-03-11T19:41:49.396Z,5.60
2019-03-11T19:44:20.373Z,5.60
2019-03-11T19:46:51.125Z,5.60
2019-03-11T19:49:24.759Z,5.50
2019-03-11T19:51:55.825Z,5.50
2019-03-11T19:54:27.871Z,5.50
2019-03-11T19:57:04.187Z,5.50
2019-03-11T19:59:36.560Z,5.50
2019-03-11T20:02:08.707Z,5.50
2019-03-11T20:04:40.275Z,5.50
2019-03-11T20:07:12.323Z,5.40
2019-03-11T20:09:44.004Z,5.40
2019-03-11T20:12:16.690Z,5.40
2019-03-11T20:14:47.417Z,5.40
2019-03-11T20:17:18.080Z,5.30
2019-03-11T20:19:48.790Z,5.40
2019-03-11T20:22:19.488Z,5.40
2019-03-11T20:24:51.341Z,5.30
2019-03-11T20:27:23.350Z,5.30
2019-03-11T20:29:56.304Z,5.30
2019-03-11T20:32:27.959Z,5.30
2019-03-11T20:35:00.487Z,5.30
2019-03-11T20:37:32.614Z,5.30
2019-03-11T20:40:04.970Z,5.20
2019-03-11T20:42:39.900Z,5.20
2019-03-11T20:45:11.848Z,5.20
2019-03-11T20:47:42.634Z,5.20
2019-03-11T20:50:15.878Z,5.20
2019-03-11T20:52:46.883Z,5.20
2019-03-11T20:55:19.035Z,5.20
2019-03-11T20:57:49.709Z,5.20
2019-03-11T21:00:20.910Z,5.20
2019-03-11T21:02:52.033Z,5.10
2019-03-11T21:05:27.172Z,5.10
2019-03-11T21:07:59.765Z,5.20
2019-03-11T21:10:31.833Z,5.10
2019-03-11T21:13:05.077Z,5.10
2019-03-11T21:15:37.005Z,5.10
2019-03-11T21:18:09.610Z,5.10
2019-03-11T21:20:41.429Z,5.10
2019-03-11T21:23:13.207Z,5.10
2019-03-11T21:25:44.089Z,5.10
2019-03-11T21:28:15.859Z,5.10
2019-03-11T21:30:47.465Z,5.10
2019-03-11T21:33:20.346Z,5.10
2019-03-11T21:35:52.875Z,5.10
2019-03-11T21:38:25.657Z,5.10
2019-03-11T21:41:00.342Z,5.10
2019-03-11T21:43:31.595Z,5.10
2019-03-11T21:46:08.161Z,5.10
2019-03-11T21:48:42.503Z,5.10
2019-03-11T21:51:14.193Z,5.20
2019-03-11T21:53:46.293Z,5.20
2019-03-11T21:56:20.651Z,5.20
2019-03-11T21:58:51.519Z,5.10
2019-03-11T22:01:22.536Z,5.10
2019-03-11T22:03:54.338Z,5.20
2019-03-11T22:06:25.010Z,5.20
2019-03-11T22:08:56.094Z,5.10
2019-03-11T22:11:26.773Z,5.10
2019-03-11T22:13:58.223Z,5.10
2019-03-11T22:16:30.029Z,5.10
2019-03-11T22:19:02.605Z,5.10
2019-03-11T22:21:34.960Z,5.10
2019-03-11T22:24:05.637Z,5.10
2019-03-11T22:26:36.330Z,5.10
2019-03-11T22:29:06.995Z,5.10
2019-03-11T22:31:38.285Z,5.10
2019-03-11T22:34:08.956Z,5.10
2019-03-11T22:36:39.717Z,5.10
2019-03-11T22:39:10.380Z,5.10
2019-03-11T22:41:41.314Z,5.10
2019-03-11T22:44:12.027Z,5.10
2019-03-11T22:46:42.685Z,5.10
2019-03-11T22:49:14.209Z,5.10
2019-03-11T22:51:44.885Z,5.10
2019-03-11T22:54:15.538Z,5.10
2019-03-11T22:56:46.820Z,5.10
2019-03-11T22:59:17.528Z,5.10
2019-03-11T23:01:48.284Z,5.10
2019-03-11T23:04:19.942Z,5.10
2019-03-11T23:06:50.685Z,5.20
2019-03-11T23:09:21.359Z,5.20
2019-03-11T23:11:52.384Z,5.20
2019-03-11T23:14:23.487Z,5.20
2019-03-11T23:16:54.513Z,5.20
2019-03-11T23:19:25.549Z,5.20
2019-03-11T23:21:56.328Z,5.20
2019-03-11T23:24:27.056Z,5.10
2019-03-11T23:26:58.057Z,5.10
2019-03-11T23:29:29.280Z,5.10
2019-03-11T23:31:59.933Z,5.10
2019-03-11T23:34:30.955Z,5.10
2019-03-11T23:37:02.094Z,5.00
2019-03-11T23:39:37.425Z,5.00
2019-03-11T23:42:10.555Z,5.00
2019-03-11T23:44:42.866Z,5.00
2019-03-11T23:47:14.004Z,5.00
2019-03-11T23:49:44.796Z,5.00
2019-03-11T23:52:15.858Z,5.00
2019-03-11T23:54:46.653Z,5.00
2019-03-11T23:57:17.979Z,5.00
2019-03-11T23:59:49.812Z,5.00
